FDN269 VTBD-RJTT
Flight info
| Callsign | FDN269 |
|---|---|
| Flight time | N/A |
| Altitude | 37000 |
| Route | UPKUP3A UPKUP Y16 BUTRA A1 PAPRA/K0848F370 A1 IKELA/N0457F370 DCT MORTU DCT NOBAD DCT KAPLI G86 HCN J7 PICHU Q13 IGURU Y57 SUKBO Y571 BILLY Y21 AKSEL |
| Aircraft | A20N/M-SDE2E3FGHIRWXY/LB1 |
Departure
| Time | N/A |
|---|---|
| Airport | Don Mueang International Airport (VTBD) |
Arrival
| Time | 2026-05-01 10:20 |
|---|---|
| Airport | Tokyo Haneda International Airport (RJTT) |
| Time | Latitude | Longitude | Altitude | Speed | Heading |
|---|---|---|---|---|---|
| 2026-05-01 07:23 | 21.22201 | 117.73145 | 37024 ft | 535 kts | 75° |
| 2026-05-01 07:24 | 21.24736 | 117.84751 | 37025 ft | 534 kts | 72° |
| 2026-05-01 07:24 | 21.26615 | 117.92428 | 37014 ft | 534 kts | 71° |
| 2026-05-01 07:25 | 21.28485 | 118.00112 | 37016 ft | 534 kts | 72° |
| 2026-05-01 07:25 | 21.30337 | 118.07801 | 37019 ft | 534 kts | 72° |
| 2026-05-01 07:26 | 21.32189 | 118.15531 | 37013 ft | 539 kts | 73° |
| 2026-05-01 07:26 | 21.34024 | 118.23310 | 37003 ft | 539 kts | 73° |
| 2026-05-01 07:27 | 21.35824 | 118.31100 | 37009 ft | 539 kts | 73° |
| 2026-05-01 07:27 | 21.37647 | 118.38881 | 36982 ft | 539 kts | 73° |
| 2026-05-01 07:28 | 21.39453 | 118.46673 | 36961 ft | 539 kts | 73° |
| 2026-05-01 07:28 | 21.41218 | 118.54472 | 36971 ft | 540 kts | 74° |
| 2026-05-01 07:29 | 21.42999 | 118.62277 | 36955 ft | 540 kts | 73° |
| 2026-05-01 07:29 | 21.44797 | 118.70070 | 36937 ft | 539 kts | 73° |
| 2026-05-01 07:30 | 21.46573 | 118.77878 | 36948 ft | 539 kts | 73° |
| 2026-05-01 07:30 | 21.48388 | 118.85669 | 36944 ft | 540 kts | 73° |
| 2026-05-01 07:31 | 21.50166 | 118.93473 | 36934 ft | 539 kts | 73° |
| 2026-05-01 07:32 | 21.54678 | 119.12976 | 36934 ft | 539 kts | 73° |
| 2026-05-01 07:33 | 21.57383 | 119.24671 | 36934 ft | 540 kts | 73° |
| 2026-05-01 07:33 | 21.60022 | 119.36397 | 36934 ft | 540 kts | 74° |
| 2026-05-01 07:34 | 21.62644 | 119.48129 | 36934 ft | 540 kts | 74° |
| 2026-05-01 07:35 | 21.64391 | 119.55957 | 36934 ft | 540 kts | 74° |
| 2026-05-01 07:35 | 21.66136 | 119.63776 | 36934 ft | 540 kts | 74° |
| 2026-05-01 07:36 | 21.67883 | 119.71606 | 36934 ft | 540 kts | 74° |
| 2026-05-01 07:36 | 21.69628 | 119.79433 | 36934 ft | 540 kts | 74° |
| 2026-05-01 07:37 | 21.72259 | 119.91170 | 36934 ft | 539 kts | 73° |
| 2026-05-01 07:37 | 21.74058 | 119.98978 | 36934 ft | 540 kts | 73° |
| 2026-05-01 07:38 | 21.75822 | 120.06806 | 36934 ft | 540 kts | 74° |
| 2026-05-01 07:39 | 21.78352 | 120.18579 | 36934 ft | 540 kts | 74° |
| 2026-05-01 07:39 | 21.80923 | 120.30338 | 36934 ft | 540 kts | 74° |
| 2026-05-01 07:40 | 21.82658 | 120.38176 | 36934 ft | 540 kts | 74° |
| 2026-05-01 07:40 | 21.84355 | 120.46022 | 36934 ft | 540 kts | 74° |
| 2026-05-01 07:41 | 21.86081 | 120.53868 | 36934 ft | 540 kts | 74° |
| 2026-05-01 07:42 | 21.88689 | 120.65626 | 36933 ft | 540 kts | 74° |
| 2026-05-01 07:42 | 21.90413 | 120.73475 | 36934 ft | 540 kts | 74° |
| 2026-05-01 07:43 | 21.92143 | 120.81316 | 36934 ft | 540 kts | 74° |
| 2026-05-01 07:43 | 21.94501 | 120.93136 | 36935 ft | 540 kts | 77° |
| 2026-05-01 07:44 | 21.97217 | 121.09043 | 36934 ft | 541 kts | 77° |
| 2026-05-01 07:45 | 21.98719 | 121.16952 | 36935 ft | 539 kts | 71° |
| 2026-05-01 07:45 | 22.01678 | 121.24242 | 36939 ft | 528 kts | 53° |
| 2026-05-01 07:46 | 22.06204 | 121.30333 | 36945 ft | 519 kts | 40° |
| 2026-05-01 07:47 | 22.13787 | 121.38597 | 36939 ft | 519 kts | 41° |
| 2026-05-01 07:47 | 22.18554 | 121.44447 | 36943 ft | 522 kts | 45° |
| 2026-05-01 07:48 | 22.25270 | 121.53717 | 36935 ft | 524 kts | 47° |
| 2026-05-01 07:48 | 22.29700 | 121.59942 | 36934 ft | 524 kts | 47° |
| 2026-05-01 07:49 | 22.36475 | 121.69149 | 36932 ft | 522 kts | 45° |
| 2026-05-01 07:50 | 22.41034 | 121.75249 | 36934 ft | 523 kts | 46° |
| 2026-05-01 07:50 | 22.47833 | 121.84418 | 36964 ft | 522 kts | 46° |
| 2026-05-01 07:51 | 22.52319 | 121.90540 | 37004 ft | 520 kts | 46° |
| 2026-05-01 07:52 | 22.59064 | 121.99711 | 37035 ft | 520 kts | 46° |
| 2026-05-01 07:52 | 22.63561 | 122.05814 | 37061 ft | 520 kts | 46° |
| 2026-05-01 07:53 | 22.70311 | 122.14974 | 37070 ft | 521 kts | 46° |
| 2026-05-01 07:53 | 22.74816 | 122.21091 | 37075 ft | 521 kts | 46° |
| 2026-05-01 07:55 | 22.86108 | 122.36488 | 37086 ft | 532 kts | 46° |
| 2026-05-01 07:56 | 22.97589 | 122.52255 | 37105 ft | 535 kts | 46° |
| 2026-05-01 07:57 | 23.04503 | 122.61762 | 37124 ft | 536 kts | 46° |
| 2026-05-01 07:58 | 23.13717 | 122.74440 | 37128 ft | 536 kts | 46° |
| 2026-05-01 07:59 | 23.22949 | 122.87181 | 37129 ft | 538 kts | 46° |
| 2026-05-01 08:00 | 23.36637 | 123.06477 | 37131 ft | 541 kts | 50° |
| 2026-05-01 08:01 | 23.44678 | 123.19652 | 37130 ft | 542 kts | 52° |
| 2026-05-01 08:02 | 23.50285 | 123.28726 | 37132 ft | 541 kts | 51° |
| 2026-05-01 08:03 | 23.56689 | 123.38821 | 37133 ft | 541 kts | 51° |
| 2026-05-01 08:03 | 23.63052 | 123.48962 | 37133 ft | 541 kts | 51° |
| 2026-05-01 08:04 | 23.71569 | 123.62448 | 37136 ft | 541 kts | 51° |
| 2026-05-01 08:05 | 23.77941 | 123.72588 | 37137 ft | 541 kts | 51° |
| 2026-05-01 08:06 | 23.84290 | 123.82746 | 37139 ft | 541 kts | 51° |
| 2026-05-01 08:07 | 23.92747 | 123.96309 | 37140 ft | 541 kts | 51° |
| 2026-05-01 08:08 | 23.99100 | 124.06482 | 37140 ft | 541 kts | 50° |
| 2026-05-01 08:09 | 24.07781 | 124.19855 | 37140 ft | 541 kts | 50° |
| 2026-05-01 08:09 | 24.12106 | 124.26563 | 37140 ft | 541 kts | 50° |
| 2026-05-01 08:10 | 24.20746 | 124.39996 | 37139 ft | 541 kts | 50° |
| 2026-05-01 08:11 | 24.29382 | 124.53438 | 37140 ft | 541 kts | 50° |
| 2026-05-01 08:12 | 24.35881 | 124.63541 | 37140 ft | 546 kts | 49° |
| 2026-05-01 08:13 | 24.42502 | 124.73780 | 37140 ft | 551 kts | 49° |
| 2026-05-01 08:13 | 24.49029 | 124.84120 | 37140 ft | 551 kts | 50° |
| 2026-05-01 08:14 | 24.53376 | 124.91031 | 37140 ft | 551 kts | 49° |
| 2026-05-01 08:14 | 24.57235 | 124.97072 | 37140 ft | 550 kts | 49° |
| 2026-05-01 08:15 | 24.63794 | 125.07409 | 37140 ft | 551 kts | 50° |
| 2026-05-01 08:16 | 24.68173 | 125.14291 | 37139 ft | 550 kts | 49° |
| 2026-05-01 08:16 | 24.72565 | 125.21153 | 37140 ft | 551 kts | 49° |
| 2026-05-01 08:17 | 24.76919 | 125.28054 | 37140 ft | 551 kts | 50° |
| 2026-05-01 08:17 | 24.81173 | 125.35068 | 37141 ft | 553 kts | 52° |
| 2026-05-01 08:18 | 24.85207 | 125.42253 | 37141 ft | 554 kts | 54° |
| 2026-05-01 08:19 | 24.93159 | 125.56751 | 37140 ft | 554 kts | 53° |
| 2026-05-01 08:19 | 24.97196 | 125.63956 | 37140 ft | 554 kts | 53° |
| 2026-05-01 08:20 | 25.01243 | 125.71146 | 37140 ft | 553 kts | 53° |
| 2026-05-01 08:20 | 25.05307 | 125.78333 | 37140 ft | 553 kts | 52° |
| 2026-05-01 08:21 | 25.09375 | 125.85511 | 37140 ft | 553 kts | 53° |
| 2026-05-01 08:21 | 25.13435 | 125.92706 | 37141 ft | 553 kts | 53° |
| 2026-05-01 08:22 | 25.17510 | 125.99880 | 37141 ft | 553 kts | 52° |
| 2026-05-01 08:22 | 25.21593 | 126.07056 | 37142 ft | 554 kts | 53° |
| 2026-05-01 08:23 | 25.25599 | 126.14295 | 37147 ft | 554 kts | 53° |
| 2026-05-01 08:23 | 25.29586 | 126.21567 | 37148 ft | 554 kts | 53° |
| 2026-05-01 08:24 | 25.33609 | 126.28796 | 37150 ft | 554 kts | 53° |
| 2026-05-01 08:24 | 25.37655 | 126.36020 | 37151 ft | 556 kts | 53° |
| 2026-05-01 08:25 | 25.41751 | 126.43346 | 37154 ft | 567 kts | 52° |
| 2026-05-01 08:25 | 25.45884 | 126.50790 | 37164 ft | 570 kts | 53° |
| 2026-05-01 08:26 | 25.49850 | 126.57969 | 37171 ft | 569 kts | 53° |
| 2026-05-01 08:26 | 25.53250 | 126.64133 | 37177 ft | 569 kts | 53° |
| 2026-05-01 08:27 | 25.57351 | 126.71607 | 37178 ft | 570 kts | 53° |
| 2026-05-01 08:27 | 25.61433 | 126.79107 | 37178 ft | 570 kts | 53° |
| 2026-05-01 08:28 | 25.65537 | 126.86590 | 37179 ft | 570 kts | 53° |
| 2026-05-01 08:28 | 25.69642 | 126.94081 | 37178 ft | 570 kts | 53° |
| 2026-05-01 08:29 | 25.73727 | 127.01584 | 37178 ft | 570 kts | 53° |
| 2026-05-01 08:29 | 25.77786 | 127.09115 | 37180 ft | 570 kts | 53° |
| 2026-05-01 08:30 | 25.81894 | 127.16647 | 37180 ft | 572 kts | 53° |
| 2026-05-01 08:30 | 25.85971 | 127.24180 | 37179 ft | 571 kts | 53° |
| 2026-05-01 08:31 | 25.90088 | 127.31723 | 37184 ft | 572 kts | 53° |
| 2026-05-01 08:31 | 25.94164 | 127.39290 | 37187 ft | 572 kts | 54° |
| 2026-05-01 08:32 | 25.98225 | 127.46878 | 37187 ft | 572 kts | 54° |
| 2026-05-01 08:32 | 26.02272 | 127.54456 | 37187 ft | 572 kts | 54° |
| 2026-05-01 08:33 | 26.06346 | 127.62034 | 37183 ft | 572 kts | 53° |
| 2026-05-01 08:33 | 26.10451 | 127.69607 | 37182 ft | 572 kts | 53° |
| 2026-05-01 08:34 | 26.14518 | 127.77195 | 37191 ft | 572 kts | 54° |
| 2026-05-01 08:34 | 26.19158 | 127.84213 | 37196 ft | 558 kts | 38° |
| 2026-05-01 08:35 | 26.24909 | 127.89772 | 37207 ft | 544 kts | 27° |
| 2026-05-01 08:35 | 26.30763 | 127.95170 | 37206 ft | 554 kts | 36° |
| 2026-05-01 08:36 | 26.36094 | 128.01447 | 37206 ft | 561 kts | 41° |
| 2026-05-01 08:36 | 26.41171 | 128.08033 | 37205 ft | 561 kts | 42° |
| 2026-05-01 08:37 | 26.46303 | 128.14530 | 37205 ft | 559 kts | 40° |
| 2026-05-01 08:37 | 26.51597 | 128.20860 | 37205 ft | 557 kts | 39° |
| 2026-05-01 08:38 | 26.56925 | 128.27056 | 37203 ft | 555 kts | 37° |
| 2026-05-01 08:38 | 26.62294 | 128.33270 | 37204 ft | 558 kts | 37° |
| 2026-05-01 08:39 | 26.67642 | 128.39549 | 37202 ft | 559 kts | 38° |
| 2026-05-01 08:39 | 26.72965 | 128.45871 | 37201 ft | 559 kts | 38° |
| 2026-05-01 08:40 | 26.80970 | 128.55330 | 37200 ft | 559 kts | 37° |
| 2026-05-01 08:40 | 26.86291 | 128.61630 | 37200 ft | 559 kts | 38° |
| 2026-05-01 08:41 | 26.91596 | 128.67973 | 37200 ft | 560 kts | 38° |
| 2026-05-01 08:41 | 26.96881 | 128.74361 | 37200 ft | 560 kts | 38° |
| 2026-05-01 08:42 | 27.02182 | 128.80726 | 37199 ft | 560 kts | 38° |
| 2026-05-01 08:42 | 27.07490 | 128.87086 | 37199 ft | 560 kts | 38° |
| 2026-05-01 08:43 | 27.12827 | 128.93472 | 37200 ft | 563 kts | 38° |
| 2026-05-01 08:43 | 27.18169 | 128.99864 | 37199 ft | 562 kts | 38° |
| 2026-05-01 08:44 | 27.23503 | 129.06252 | 37199 ft | 563 kts | 38° |
| 2026-05-01 08:44 | 27.28844 | 129.12649 | 37199 ft | 563 kts | 38° |
| 2026-05-01 08:45 | 27.34183 | 129.19069 | 37199 ft | 562 kts | 38° |
| 2026-05-01 08:45 | 27.39483 | 129.25508 | 37198 ft | 563 kts | 39° |
| 2026-05-01 08:46 | 27.44764 | 129.31987 | 37199 ft | 563 kts | 38° |
| 2026-05-01 08:46 | 27.50029 | 129.38406 | 37201 ft | 556 kts | 38° |
| 2026-05-01 08:47 | 27.55304 | 129.44799 | 37199 ft | 559 kts | 37° |
| 2026-05-01 08:47 | 27.60569 | 129.51206 | 37199 ft | 559 kts | 38° |
| 2026-05-01 08:48 | 27.65848 | 129.57638 | 37199 ft | 559 kts | 37° |
| 2026-05-01 08:48 | 27.71134 | 129.64012 | 37199 ft | 559 kts | 38° |
| 2026-05-01 08:49 | 27.76441 | 129.70450 | 37200 ft | 562 kts | 38° |
| 2026-05-01 08:49 | 27.81751 | 129.76904 | 37199 ft | 562 kts | 38° |
| 2026-05-01 08:50 | 27.87060 | 129.83388 | 37199 ft | 563 kts | 38° |
| 2026-05-01 08:50 | 27.92325 | 129.89914 | 37199 ft | 563 kts | 39° |
| 2026-05-01 08:51 | 27.97575 | 129.96442 | 37199 ft | 563 kts | 38° |
| 2026-05-01 08:51 | 28.02862 | 130.02933 | 37199 ft | 562 kts | 38° |
| 2026-05-01 08:52 | 28.08154 | 130.09450 | 37199 ft | 563 kts | 38° |
| 2026-05-01 08:52 | 28.13414 | 130.15974 | 37199 ft | 562 kts | 38° |
| 2026-05-01 08:53 | 28.18700 | 130.22466 | 37199 ft | 562 kts | 38° |
| 2026-05-01 08:53 | 28.24002 | 130.28967 | 37199 ft | 562 kts | 38° |
| 2026-05-01 08:54 | 28.29261 | 130.35480 | 37203 ft | 563 kts | 38° |
| 2026-05-01 08:54 | 28.34537 | 130.42020 | 37198 ft | 562 kts | 39° |
| 2026-05-01 08:55 | 28.39767 | 130.48583 | 37199 ft | 563 kts | 39° |
| 2026-05-01 08:55 | 28.44999 | 130.55174 | 37198 ft | 563 kts | 39° |
| 2026-05-01 08:56 | 28.50247 | 130.61759 | 37199 ft | 562 kts | 38° |
| 2026-05-01 08:56 | 28.55496 | 130.68301 | 37199 ft | 563 kts | 39° |
| 2026-05-01 08:57 | 28.60740 | 130.74900 | 37199 ft | 563 kts | 39° |
| 2026-05-01 08:57 | 28.65993 | 130.81471 | 37198 ft | 562 kts | 38° |
| 2026-05-01 08:58 | 28.71251 | 130.88018 | 37199 ft | 562 kts | 39° |
| 2026-05-01 08:58 | 28.76487 | 130.94606 | 37199 ft | 562 kts | 39° |
| 2026-05-01 08:59 | 28.81738 | 131.01145 | 37199 ft | 561 kts | 38° |
| 2026-05-01 08:59 | 28.85941 | 131.06398 | 37199 ft | 562 kts | 39° |
| 2026-05-01 09:00 | 28.91177 | 131.13010 | 37199 ft | 562 kts | 39° |
| 2026-05-01 09:00 | 28.96353 | 131.19664 | 37199 ft | 563 kts | 39° |
| 2026-05-01 09:01 | 29.01564 | 131.26319 | 37199 ft | 562 kts | 39° |
| 2026-05-01 09:01 | 29.06759 | 131.32927 | 37199 ft | 561 kts | 39° |
| 2026-05-01 09:02 | 29.11966 | 131.39547 | 37200 ft | 559 kts | 40° |
| 2026-05-01 09:02 | 29.17140 | 131.46173 | 37200 ft | 559 kts | 40° |
| 2026-05-01 09:03 | 29.22334 | 131.52752 | 37199 ft | 559 kts | 40° |
| 2026-05-01 09:03 | 29.27537 | 131.59333 | 37199 ft | 559 kts | 40° |
| 2026-05-01 09:04 | 29.32714 | 131.65957 | 37201 ft | 559 kts | 40° |
| 2026-05-01 09:04 | 29.37880 | 131.72556 | 37198 ft | 553 kts | 41° |
| 2026-05-01 09:05 | 29.42988 | 131.79112 | 37200 ft | 554 kts | 41° |
| 2026-05-01 09:05 | 29.48079 | 131.85727 | 37199 ft | 554 kts | 41° |
| 2026-05-01 09:06 | 29.53202 | 131.92317 | 37198 ft | 553 kts | 41° |
| 2026-05-01 09:06 | 29.58325 | 131.98877 | 37199 ft | 553 kts | 41° |
| 2026-05-01 09:07 | 29.63419 | 132.05472 | 37199 ft | 554 kts | 41° |
| 2026-05-01 09:07 | 29.68363 | 132.12041 | 37199 ft | 555 kts | 43° |
| 2026-05-01 09:08 | 29.73257 | 132.18879 | 37199 ft | 556 kts | 44° |
| 2026-05-01 09:08 | 29.78108 | 132.25814 | 37199 ft | 557 kts | 45° |
| 2026-05-01 09:09 | 29.82930 | 132.32759 | 37204 ft | 557 kts | 45° |
| 2026-05-01 09:09 | 29.87773 | 132.39671 | 37198 ft | 556 kts | 44° |
| 2026-05-01 09:10 | 29.92655 | 132.46555 | 37199 ft | 556 kts | 44° |
| 2026-05-01 09:10 | 29.97554 | 132.53442 | 37199 ft | 556 kts | 44° |
| 2026-05-01 09:11 | 30.02449 | 132.60320 | 37199 ft | 556 kts | 44° |
| 2026-05-01 09:11 | 30.07347 | 132.67201 | 37199 ft | 556 kts | 44° |
| 2026-05-01 09:12 | 30.12237 | 132.74084 | 37199 ft | 556 kts | 44° |
| 2026-05-01 09:12 | 30.17075 | 132.81038 | 37198 ft | 557 kts | 45° |
| 2026-05-01 09:13 | 30.21898 | 132.88009 | 37199 ft | 556 kts | 45° |
| 2026-05-01 09:13 | 30.26755 | 132.94947 | 37199 ft | 556 kts | 44° |
| 2026-05-01 09:14 | 30.31582 | 133.01901 | 37199 ft | 557 kts | 45° |
| 2026-05-01 09:14 | 30.36426 | 133.08874 | 37199 ft | 556 kts | 44° |
| 2026-05-01 09:15 | 30.41289 | 133.15806 | 37199 ft | 556 kts | 44° |
| 2026-05-01 09:15 | 30.46141 | 133.22770 | 37199 ft | 555 kts | 44° |
| 2026-05-01 09:16 | 30.51081 | 133.29588 | 37199 ft | 554 kts | 43° |
| 2026-05-01 09:17 | 30.58582 | 133.39766 | 37199 ft | 554 kts | 43° |
| 2026-05-01 09:17 | 30.65970 | 133.49944 | 37199 ft | 549 kts | 44° |
| 2026-05-01 09:18 | 30.73340 | 133.60108 | 37199 ft | 549 kts | 43° |
| 2026-05-01 09:19 | 30.80737 | 133.70250 | 37199 ft | 550 kts | 43° |
| 2026-05-01 09:20 | 30.88108 | 133.80424 | 37199 ft | 549 kts | 43° |
| 2026-05-01 09:21 | 30.97897 | 133.94030 | 37195 ft | 550 kts | 44° |
| 2026-05-01 09:21 | 31.05202 | 134.04330 | 37191 ft | 550 kts | 44° |
| 2026-05-01 09:22 | 31.14974 | 134.18011 | 37189 ft | 550 kts | 44° |
| 2026-05-01 09:23 | 31.22345 | 134.28337 | 37185 ft | 555 kts | 45° |
| 2026-05-01 09:24 | 31.29772 | 134.38690 | 37173 ft | 555 kts | 45° |
| 2026-05-01 09:25 | 31.39664 | 134.52511 | 37169 ft | 556 kts | 45° |
| 2026-05-01 09:26 | 31.46987 | 134.63033 | 37171 ft | 557 kts | 46° |
| 2026-05-01 09:26 | 31.54070 | 134.73105 | 37166 ft | 556 kts | 46° |
| 2026-05-01 09:27 | 31.61462 | 134.83648 | 37157 ft | 562 kts | 46° |
| 2026-05-01 09:28 | 31.66419 | 134.90718 | 37159 ft | 562 kts | 46° |
| 2026-05-01 09:28 | 31.71372 | 134.97785 | 37163 ft | 562 kts | 46° |
| 2026-05-01 09:29 | 31.78814 | 135.08410 | 37131 ft | 563 kts | 46° |
| 2026-05-01 09:30 | 31.86254 | 135.19041 | 37134 ft | 563 kts | 46° |
| 2026-05-01 09:30 | 31.93715 | 135.29659 | 37133 ft | 563 kts | 46° |
| 2026-05-01 09:31 | 31.98628 | 135.36818 | 37128 ft | 563 kts | 47° |
| 2026-05-01 09:32 | 32.05959 | 135.47597 | 37132 ft | 563 kts | 46° |
| 2026-05-01 09:32 | 32.13363 | 135.58312 | 37130 ft | 563 kts | 46° |
| 2026-05-01 09:33 | 32.18293 | 135.65458 | 37132 ft | 563 kts | 46° |
| 2026-05-01 09:34 | 32.25680 | 135.76206 | 37132 ft | 563 kts | 46° |
| 2026-05-01 09:34 | 32.33105 | 135.86909 | 37132 ft | 563 kts | 46° |
| 2026-05-01 09:35 | 32.40441 | 135.97723 | 37133 ft | 563 kts | 47° |
| 2026-05-01 09:36 | 32.45784 | 136.04348 | 37132 ft | 551 kts | 32° |
| 2026-05-01 09:36 | 32.52112 | 136.09228 | 37138 ft | 546 kts | 27° |
| 2026-05-01 09:37 | 32.58396 | 136.14196 | 37135 ft | 536 kts | 18° |
| 2026-05-01 09:37 | 32.68432 | 136.19810 | 37133 ft | 545 kts | 26° |
| 2026-05-01 09:38 | 32.74224 | 136.25764 | 37134 ft | 561 kts | 44° |
| 2026-05-01 09:38 | 32.76607 | 136.29444 | 37135 ft | 567 kts | 53° |
| 2026-05-01 09:39 | 32.81967 | 136.42001 | 37134 ft | 571 kts | 63° |
| 2026-05-01 09:39 | 32.85675 | 136.50296 | 37132 ft | 568 kts | 56° |
| 2026-05-01 09:40 | 32.92342 | 136.61862 | 37134 ft | 565 kts | 49° |
| 2026-05-01 09:41 | 32.97015 | 136.69353 | 37131 ft | 565 kts | 50° |
| 2026-05-01 09:41 | 33.03773 | 136.80853 | 37130 ft | 568 kts | 54° |
| 2026-05-01 09:42 | 33.08408 | 136.88380 | 37133 ft | 563 kts | 45° |
| 2026-05-01 09:43 | 33.18969 | 137.02117 | 37129 ft | 568 kts | 43° |
| 2026-05-01 09:43 | 33.24197 | 137.09172 | 37129 ft | 569 kts | 45° |
| 2026-05-01 09:44 | 33.31794 | 137.20044 | 37130 ft | 570 kts | 46° |
| 2026-05-01 09:45 | 33.36859 | 137.27304 | 37125 ft | 569 kts | 45° |
| 2026-05-01 09:45 | 33.44537 | 137.38109 | 37125 ft | 569 kts | 45° |
| 2026-05-01 09:46 | 33.49674 | 137.45303 | 37124 ft | 570 kts | 45° |
| 2026-05-01 09:46 | 33.54816 | 137.52490 | 37123 ft | 570 kts | 45° |
| 2026-05-01 09:47 | 33.59936 | 137.59772 | 37125 ft | 576 kts | 45° |
| 2026-05-01 09:47 | 33.65061 | 137.67136 | 37122 ft | 576 kts | 46° |
| 2026-05-01 09:48 | 33.70170 | 137.74508 | 37128 ft | 576 kts | 46° |
| 2026-05-01 09:48 | 33.75284 | 137.81900 | 37135 ft | 576 kts | 46° |
| 2026-05-01 09:49 | 33.80398 | 137.89299 | 37154 ft | 576 kts | 46° |
| 2026-05-01 09:49 | 33.85535 | 137.96670 | 37163 ft | 576 kts | 45° |
| 2026-05-01 09:50 | 33.90703 | 138.04005 | 37167 ft | 576 kts | 45° |
| 2026-05-01 09:50 | 33.95836 | 138.11382 | 37163 ft | 576 kts | 46° |
| 2026-05-01 09:51 | 34.00983 | 138.18756 | 37165 ft | 576 kts | 45° |
| 2026-05-01 09:51 | 34.06107 | 138.26138 | 37163 ft | 576 kts | 46° |
| 2026-05-01 09:52 | 34.11178 | 138.33602 | 37161 ft | 577 kts | 46° |
| 2026-05-01 09:52 | 34.16253 | 138.41103 | 37164 ft | 577 kts | 46° |
| 2026-05-01 09:53 | 34.21346 | 138.48553 | 37162 ft | 577 kts | 46° |
| 2026-05-01 09:53 | 34.26443 | 138.55986 | 37153 ft | 577 kts | 46° |
| 2026-05-01 09:54 | 34.31552 | 138.63433 | 37155 ft | 576 kts | 46° |
| 2026-05-01 09:54 | 34.36668 | 138.70893 | 37158 ft | 577 kts | 46° |
| 2026-05-01 09:55 | 34.41766 | 138.78330 | 37152 ft | 577 kts | 46° |
| 2026-05-01 09:55 | 34.46841 | 138.85746 | 37099 ft | 559 kts | 46° |
| 2026-05-01 09:56 | 34.49288 | 138.89369 | 36522 ft | 553 kts | 46° |
| 2026-05-01 09:56 | 34.51702 | 138.92954 | 35947 ft | 547 kts | 46° |
| 2026-05-01 09:56 | 34.54086 | 138.96503 | 35377 ft | 541 kts | 46° |
| 2026-05-01 09:56 | 34.56430 | 139.00014 | 34806 ft | 534 kts | 47° |
| 2026-05-01 09:57 | 34.58737 | 139.03494 | 34232 ft | 528 kts | 47° |
| 2026-05-01 09:57 | 34.61025 | 139.06935 | 33656 ft | 522 kts | 46° |
| 2026-05-01 09:57 | 34.63298 | 139.10328 | 33079 ft | 516 kts | 46° |
| 2026-05-01 09:57 | 34.65546 | 139.13675 | 32505 ft | 510 kts | 46° |
| 2026-05-01 09:58 | 34.67786 | 139.17006 | 31927 ft | 505 kts | 46° |
| 2026-05-01 09:58 | 34.69985 | 139.20286 | 31357 ft | 499 kts | 46° |
| 2026-05-01 09:58 | 34.72145 | 139.23521 | 30788 ft | 493 kts | 46° |
| 2026-05-01 09:58 | 34.74283 | 139.26719 | 30219 ft | 487 kts | 46° |
| 2026-05-01 09:59 | 34.76402 | 139.29884 | 29641 ft | 481 kts | 46° |
| 2026-05-01 09:59 | 34.78502 | 139.33026 | 29063 ft | 475 kts | 46° |
| 2026-05-01 09:59 | 34.80565 | 139.36115 | 28489 ft | 470 kts | 46° |
| 2026-05-01 09:59 | 34.82611 | 139.39182 | 27913 ft | 465 kts | 46° |
| 2026-05-01 10:00 | 34.84646 | 139.42201 | 27337 ft | 459 kts | 45° |
| 2026-05-01 10:00 | 34.86669 | 139.45183 | 26763 ft | 455 kts | 45° |
| 2026-05-01 10:00 | 34.88658 | 139.48122 | 26195 ft | 449 kts | 45° |
| 2026-05-01 10:00 | 34.90617 | 139.51029 | 25627 ft | 443 kts | 46° |
| 2026-05-01 10:01 | 34.92554 | 139.53910 | 25057 ft | 437 kts | 46° |
| 2026-05-01 10:01 | 34.94457 | 139.56757 | 24483 ft | 431 kts | 47° |
| 2026-05-01 10:01 | 34.96345 | 139.59584 | 23902 ft | 427 kts | 47° |
| 2026-05-01 10:01 | 34.98193 | 139.62355 | 23329 ft | 422 kts | 47° |
| 2026-05-01 10:02 | 35.00041 | 139.65133 | 22731 ft | 419 kts | 47° |
| 2026-05-01 10:02 | 35.01851 | 139.67885 | 22113 ft | 416 kts | 47° |
| 2026-05-01 10:02 | 35.03639 | 139.70637 | 21491 ft | 414 kts | 47° |
| 2026-05-01 10:02 | 35.05422 | 139.73367 | 20868 ft | 411 kts | 47° |
| 2026-05-01 10:03 | 35.07194 | 139.76069 | 20250 ft | 408 kts | 48° |
| 2026-05-01 10:03 | 35.08969 | 139.78766 | 19627 ft | 405 kts | 48° |
| 2026-05-01 10:03 | 35.10727 | 139.81426 | 19004 ft | 402 kts | 48° |
| 2026-05-01 10:03 | 35.12472 | 139.84064 | 18381 ft | 399 kts | 48° |
| 2026-05-01 10:04 | 35.14206 | 139.86684 | 17758 ft | 396 kts | 48° |
| 2026-05-01 10:04 | 35.15924 | 139.89303 | 17133 ft | 394 kts | 48° |
| 2026-05-01 10:04 | 35.17624 | 139.91903 | 16511 ft | 392 kts | 48° |
| 2026-05-01 10:04 | 35.19321 | 139.94485 | 15887 ft | 389 kts | 48° |
| 2026-05-01 10:05 | 35.21010 | 139.97049 | 15264 ft | 387 kts | 48° |
| 2026-05-01 10:05 | 35.22689 | 139.99600 | 14645 ft | 385 kts | 47° |
| 2026-05-01 10:05 | 35.24348 | 140.02143 | 14026 ft | 381 kts | 48° |
| 2026-05-01 10:05 | 35.25954 | 140.04599 | 13397 ft | 359 kts | 49° |
| 2026-05-01 10:06 | 35.27470 | 140.06916 | 12758 ft | 341 kts | 48° |
| 2026-05-01 10:06 | 35.28914 | 140.09120 | 12133 ft | 328 kts | 49° |
| 2026-05-01 10:06 | 35.30306 | 140.11279 | 11496 ft | 318 kts | 49° |
| 2026-05-01 10:06 | 35.31649 | 140.13377 | 10862 ft | 310 kts | 49° |
| 2026-05-01 10:07 | 35.32954 | 140.15424 | 10235 ft | 302 kts | 49° |
| 2026-05-01 10:07 | 35.34231 | 140.17429 | 9613 ft | 295 kts | 49° |
| 2026-05-01 10:07 | 35.35718 | 140.19050 | 9011 ft | 282 kts | 26° |
| 2026-05-01 10:07 | 35.37501 | 140.19821 | 8486 ft | 269 kts | 9° |
| 2026-05-01 10:08 | 35.40518 | 140.20252 | 7569 ft | 257 kts | 360° |
| 2026-05-01 10:08 | 35.42865 | 140.20352 | 6836 ft | 252 kts | 359° |
| 2026-05-01 10:08 | 35.44597 | 140.20385 | 6288 ft | 249 kts | 358° |
| 2026-05-01 10:09 | 35.46321 | 140.20409 | 5736 ft | 246 kts | 358° |
| 2026-05-01 10:09 | 35.48021 | 140.20425 | 5189 ft | 244 kts | 358° |
| 2026-05-01 10:09 | 35.49681 | 140.20422 | 5046 ft | 232 kts | 357° |
| 2026-05-01 10:09 | 35.51247 | 140.20415 | 4992 ft | 221 kts | 357° |
| 2026-05-01 10:10 | 35.52754 | 140.20401 | 4962 ft | 211 kts | 354° |
| 2026-05-01 10:10 | 35.54146 | 140.20153 | 5014 ft | 191 kts | 345° |
| 2026-05-01 10:10 | 35.56570 | 140.19395 | 4966 ft | 177 kts | 339° |
| 2026-05-01 10:11 | 35.57633 | 140.18644 | 4990 ft | 177 kts | 323° |
| 2026-05-01 10:11 | 35.58580 | 140.17680 | 4969 ft | 177 kts | 313° |
| 2026-05-01 10:11 | 35.59388 | 140.16553 | 4971 ft | 176 kts | 308° |
| 2026-05-01 10:11 | 35.60055 | 140.15307 | 4944 ft | 176 kts | 291° |
| 2026-05-01 10:12 | 35.60319 | 140.13864 | 5033 ft | 175 kts | 278° |
| 2026-05-01 10:12 | 35.60403 | 140.12879 | 5014 ft | 175 kts | 274° |
| 2026-05-01 10:12 | 35.60588 | 140.09414 | 4975 ft | 174 kts | 274° |
| 2026-05-01 10:13 | 35.60713 | 140.07923 | 4821 ft | 177 kts | 276° |
| 2026-05-01 10:13 | 35.60852 | 140.06441 | 4573 ft | 171 kts | 276° |
| 2026-05-01 10:13 | 35.60984 | 140.05062 | 4338 ft | 157 kts | 276° |
| 2026-05-01 10:14 | 35.61244 | 140.02548 | 3822 ft | 144 kts | 277° |
| 2026-05-01 10:14 | 35.61372 | 140.01344 | 3616 ft | 142 kts | 277° |
| 2026-05-01 10:14 | 35.61499 | 140.00139 | 3417 ft | 142 kts | 277° |
| 2026-05-01 10:14 | 35.61626 | 139.98937 | 3222 ft | 142 kts | 277° |
| 2026-05-01 10:15 | 35.61753 | 139.97738 | 3023 ft | 142 kts | 277° |
| 2026-05-01 10:15 | 35.61879 | 139.96538 | 2824 ft | 141 kts | 277° |
| 2026-05-01 10:15 | 35.62004 | 139.95338 | 2625 ft | 141 kts | 277° |
| 2026-05-01 10:15 | 35.62127 | 139.94153 | 2429 ft | 138 kts | 278° |
| 2026-05-01 10:16 | 35.62246 | 139.92978 | 2249 ft | 143 kts | 282° |
| 2026-05-01 10:16 | 35.62375 | 139.91720 | 2042 ft | 152 kts | 282° |
| 2026-05-01 10:16 | 35.62635 | 139.89113 | 1566 ft | 153 kts | 280° |
| 2026-05-01 10:17 | 35.62764 | 139.87808 | 1338 ft | 154 kts | 279° |
| 2026-05-01 10:17 | 35.62886 | 139.85201 | 1003 ft | 153 kts | 266° |
| 2026-05-01 10:17 | 35.62641 | 139.83931 | 1002 ft | 155 kts | 252° |
| 2026-05-01 10:18 | 35.61434 | 139.81792 | 1013 ft | 154 kts | 221° |
| 2026-05-01 10:18 | 35.60575 | 139.81003 | 998 ft | 153 kts | 211° |
| 2026-05-01 10:18 | 35.59678 | 139.80254 | 838 ft | 155 kts | 213° |
| 2026-05-01 10:19 | 35.58774 | 139.79502 | 556 ft | 159 kts | 212° |
| 2026-05-01 10:19 | 35.57891 | 139.78711 | 274 ft | 154 kts | 214° |
| 2026-05-01 10:19 | 35.57016 | 139.77975 | 39 ft | 152 kts | 213° |
| 2026-05-01 10:20 | 35.55818 | 139.76941 | 12 ft | 44 kts | 216° |
| 2026-05-01 10:20 | 35.55707 | 139.76862 | 12 ft | 25 kts | 194° |
| 2026-05-01 10:20 | 35.55589 | 139.76831 | 12 ft | 13 kts | 192° |
| 2026-05-01 10:20 | 35.55558 | 139.76823 | 12 ft | 8 kts | 192° |
| 2026-05-01 10:21 | 35.55521 | 139.76812 | 12 ft | 7 kts | 193° |
| 2026-05-01 10:21 | 35.55467 | 139.76898 | 12 ft | 8 kts | 72° |
| 2026-05-01 10:21 | 35.55502 | 139.76942 | 12 ft | 7 kts | 37° |
| 2026-05-01 10:22 | 35.55583 | 139.77024 | 12 ft | 7 kts | 53° |
| 2026-05-01 10:22 | 35.55593 | 139.77127 | 12 ft | 7 kts | 111° |
| 2026-05-01 10:23 | 35.55569 | 139.77177 | 12 ft | 7 kts | 136° |
| 2026-05-01 10:23 | 35.55457 | 139.77264 | 12 ft | 11 kts | 148° |
| 2026-05-01 10:23 | 35.55386 | 139.77319 | 12 ft | 13 kts | 149° |
| 2026-05-01 10:24 | 35.55313 | 139.77323 | 12 ft | 6 kts | 250° |
| 2026-05-01 10:24 | 35.55267 | 139.77185 | 12 ft | 9 kts | 242° |
| 2026-05-01 10:25 | 35.55171 | 139.77194 | 12 ft | 5 kts | 147° |
| 2026-05-01 10:25 | 35.55168 | 139.77196 | 12 ft | 0 kts | 148° |